createdAt,value
2018-05-21T00:00:28.263Z,17.12
2018-05-21T00:01:28.243Z,17.07
2018-05-21T00:02:28.243Z,17.09
2018-05-21T00:03:28.234Z,17.07
2018-05-21T00:04:28.221Z,17.09
2018-05-21T00:05:28.205Z,17.10
2018-05-21T00:06:28.186Z,17.01
2018-05-21T00:07:28.169Z,17.04
2018-05-21T00:08:28.296Z,17.01
2018-05-21T00:09:28.141Z,17.09
2018-05-21T00:10:28.128Z,16.98
2018-05-21T00:11:28.121Z,16.99
2018-05-21T00:12:28.112Z,16.98
2018-05-21T00:13:28.093Z,17.01
2018-05-21T00:14:28.078Z,16.91
2018-05-21T00:15:28.068Z,16.92
2018-05-21T00:16:28.062Z,16.88
2018-05-21T00:17:28.041Z,16.82
2018-05-21T00:18:28.129Z,16.83
2018-05-21T00:19:28.013Z,16.83
2018-05-21T00:20:28.003Z,16.72
2018-05-21T00:21:27.990Z,16.70
2018-05-21T00:22:27.978Z,16.77
2018-05-21T00:23:27.958Z,16.72
2018-05-21T00:24:28.055Z,16.77
2018-05-21T00:25:27.937Z,16.76
2018-05-21T00:26:27.949Z,16.76
2018-05-21T00:27:27.904Z,16.82
2018-05-21T00:28:27.994Z,16.74
2018-05-21T00:29:27.901Z,16.69
2018-05-21T00:30:27.972Z,16.77
2018-05-21T00:31:27.862Z,16.77
2018-05-21T00:32:27.845Z,16.74
2018-05-21T00:33:27.834Z,16.62
2018-05-21T00:34:27.819Z,16.70
2018-05-21T00:35:27.808Z,16.70
2018-05-21T00:36:27.788Z,16.65
2018-05-21T00:37:27.783Z,16.62
2018-05-21T00:38:27.760Z,16.67
2018-05-21T00:39:27.747Z,16.51
2018-05-21T00:40:27.734Z,16.47
2018-05-21T00:41:27.722Z,16.55
2018-05-21T00:42:27.712Z,16.55
2018-05-21T00:43:27.693Z,16.59
2018-05-21T00:44:27.682Z,16.59
2018-05-21T00:45:27.664Z,16.52
2018-05-21T00:46:27.660Z,16.52
2018-05-21T00:47:27.644Z,16.52
2018-05-21T00:48:27.628Z,16.57
2018-05-21T00:49:27.625Z,16.49
2018-05-21T00:50:27.602Z,16.54
2018-05-21T00:51:27.593Z,16.52
2018-05-21T00:52:27.579Z,16.62
2018-05-21T00:53:27.561Z,16.52
2018-05-21T00:54:27.548Z,16.54
2018-05-21T00:55:27.528Z,16.57
2018-05-21T00:56:27.523Z,16.55
2018-05-21T00:57:27.513Z,16.44
2018-05-21T00:58:27.493Z,16.46
2018-05-21T00:59:27.483Z,16.43
2018-05-21T01:00:27.466Z,16.43
2018-05-21T01:01:27.447Z,16.47
2018-05-21T01:02:27.443Z,16.42
2018-05-21T01:03:27.428Z,16.43
2018-05-21T01:04:27.413Z,16.47
2018-05-21T01:05:27.400Z,16.49
2018-05-21T01:06:27.393Z,16.47
2018-05-21T01:07:27.377Z,16.49
2018-05-21T01:08:27.358Z,16.47
2018-05-21T01:09:27.345Z,16.43
2018-05-21T01:10:27.335Z,16.49
2018-05-21T01:11:27.320Z,16.43
2018-05-21T01:12:27.310Z,16.44
2018-05-21T01:13:27.296Z,16.47
2018-05-21T01:14:27.278Z,16.47
2018-05-21T01:15:27.272Z,16.47
2018-05-21T01:16:27.252Z,16.49
2018-05-21T01:17:27.238Z,16.44
2018-05-21T01:18:27.217Z,16.43
2018-05-21T01:19:27.214Z,16.43
2018-05-21T01:20:27.198Z,16.46
2018-05-21T01:21:27.179Z,16.43
2018-05-21T01:22:27.178Z,16.51
2018-05-21T01:23:27.154Z,16.46
2018-05-21T01:24:27.142Z,16.42
2018-05-21T01:25:27.126Z,16.42
2018-05-21T01:26:27.116Z,16.44
2018-05-21T01:27:27.096Z,16.42
2018-05-21T01:28:27.093Z,16.46
2018-05-21T01:29:27.074Z,16.42
2018-05-21T01:30:27.057Z,16.44
2018-05-21T01:31:27.047Z,16.36
2018-05-21T01:32:27.035Z,16.34
2018-05-21T01:33:27.022Z,16.33
2018-05-21T01:34:27.001Z,16.32
2018-05-21T01:35:27.012Z,16.32
2018-05-21T01:36:26.983Z,16.33
2018-05-21T01:37:26.984Z,16.28
2018-05-21T01:38:26.952Z,16.28
2018-05-21T01:39:26.962Z,16.34
2018-05-21T01:40:26.928Z,16.46
2018-05-21T01:41:26.906Z,16.44
2018-05-21T01:42:26.900Z,16.49
2018-05-21T01:43:26.881Z,16.29
2018-05-21T01:44:26.862Z,16.40
2018-05-21T01:45:26.907Z,16.44
2018-05-21T01:46:26.840Z,16.36
2018-05-21T01:47:26.929Z,16.37
2018-05-21T01:48:26.808Z,16.43
2018-05-21T01:49:26.795Z,16.32
2018-05-21T01:50:26.785Z,16.34
2018-05-21T01:51:26.818Z,16.28
2018-05-21T01:52:26.757Z,16.26
2018-05-21T01:53:26.803Z,16.34
2018-05-21T01:54:26.728Z,16.32
2018-05-21T01:55:26.721Z,16.37
2018-05-21T01:56:26.703Z,16.34
2018-05-21T01:57:26.789Z,16.32
2018-05-21T01:58:26.680Z,16.33
2018-05-21T01:59:26.714Z,16.25
2018-05-21T02:00:26.649Z,16.24
2018-05-21T02:01:26.650Z,16.25
2018-05-21T02:02:26.624Z,16.13
2018-05-21T02:03:26.659Z,16.16
2018-05-21T02:04:26.591Z,16.08
2018-05-21T02:05:26.576Z,16.13
2018-05-21T02:06:26.561Z,16.03
2018-05-21T02:07:26.543Z,16.03
2018-05-21T02:08:26.578Z,16.00
2018-05-21T02:09:26.517Z,15.90
2018-05-21T02:10:26.512Z,15.91
2018-05-21T02:11:26.500Z,15.95
2018-05-21T02:12:26.479Z,15.91
2018-05-21T02:13:26.466Z,15.96
2018-05-21T02:14:26.454Z,15.98
2018-05-21T02:15:26.440Z,15.85
2018-05-21T02:16:26.428Z,15.93
2018-05-21T02:17:26.431Z,15.91
2018-05-21T02:18:26.398Z,15.88
2018-05-21T02:19:26.383Z,15.91
2018-05-21T02:20:26.373Z,15.95
2018-05-21T02:21:26.366Z,15.85
2018-05-21T02:22:26.338Z,15.80
2018-05-21T02:23:26.327Z,15.84
2018-05-21T02:24:26.322Z,15.80
2018-05-21T02:25:26.312Z,15.84
2018-05-21T02:26:26.281Z,15.80
2018-05-21T02:27:26.279Z,15.70
2018-05-21T02:28:26.260Z,15.72
2018-05-21T02:29:26.246Z,15.73
2018-05-21T02:30:26.233Z,15.72
2018-05-21T02:31:26.221Z,15.72
2018-05-21T02:32:26.205Z,15.77
2018-05-21T02:33:26.189Z,15.69
2018-05-21T02:34:26.171Z,15.76
2018-05-21T02:35:26.165Z,15.65
2018-05-21T02:36:26.141Z,15.65
2018-05-21T02:37:26.128Z,15.70
2018-05-21T02:38:26.116Z,15.69
2018-05-21T02:39:26.098Z,15.70
2018-05-21T02:40:26.092Z,15.68
2018-05-21T02:41:26.085Z,15.63
2018-05-21T02:42:26.064Z,15.59
2018-05-21T02:43:26.053Z,15.56
2018-05-21T02:44:26.038Z,15.56
2018-05-21T02:45:26.018Z,15.65
2018-05-21T02:46:26.009Z,15.56
2018-05-21T02:47:25.992Z,15.58
2018-05-21T02:48:25.977Z,15.63
2018-05-21T02:49:25.963Z,15.69
2018-05-21T02:50:25.948Z,15.60
2018-05-21T02:51:25.935Z,15.66
2018-05-21T02:52:25.932Z,15.65
2018-05-21T02:53:25.907Z,15.66
2018-05-21T02:54:25.885Z,15.65
2018-05-21T02:55:25.882Z,15.59
2018-05-21T02:56:25.869Z,15.65
2018-05-21T02:57:25.846Z,15.58
2018-05-21T02:58:25.837Z,15.65
2018-05-21T02:59:25.821Z,15.62
2018-05-21T03:00:25.812Z,15.65
2018-05-21T03:01:25.796Z,15.58
2018-05-21T03:02:25.780Z,15.51
2018-05-21T03:03:25.770Z,15.56
2018-05-21T03:04:25.752Z,15.51
2018-05-21T03:05:25.751Z,15.44
2018-05-21T03:06:25.725Z,15.41
2018-05-21T03:07:25.706Z,15.38
2018-05-21T03:08:25.694Z,15.44
2018-05-21T03:09:25.681Z,15.47
2018-05-21T03:10:25.664Z,15.44
2018-05-21T03:11:25.645Z,15.40
2018-05-21T03:12:25.642Z,15.40
2018-05-21T03:13:25.624Z,15.47
2018-05-21T03:14:25.613Z,15.32
2018-05-21T03:15:25.594Z,15.43
2018-05-21T03:16:25.583Z,15.32
2018-05-21T03:17:25.567Z,15.30
2018-05-21T03:18:25.552Z,15.32
2018-05-21T03:19:25.539Z,15.40
2018-05-21T03:20:25.574Z,15.35
2018-05-21T03:21:25.508Z,15.29
2018-05-21T03:22:25.543Z,15.30
2018-05-21T03:23:25.472Z,15.33
2018-05-21T03:24:25.524Z,15.20
2018-05-21T03:25:25.453Z,15.23
2018-05-21T03:26:25.496Z,15.29
2018-05-21T03:27:25.420Z,15.25
2018-05-21T03:28:25.471Z,15.20
2018-05-21T03:29:25.390Z,15.20
2018-05-21T03:30:25.479Z,15.17
2018-05-21T03:31:25.373Z,15.19
2018-05-21T03:32:25.401Z,15.17
2018-05-21T03:33:25.338Z,15.17
2018-05-21T03:34:25.438Z,15.26
2018-05-21T03:35:25.312Z,15.19
2018-05-21T03:36:25.294Z,15.26
2018-05-21T03:37:25.277Z,15.25
2018-05-21T03:38:25.270Z,15.26
2018-05-21T03:39:25.256Z,15.32
2018-05-21T03:40:25.241Z,15.26
2018-05-21T03:41:25.221Z,15.35
2018-05-21T03:42:25.263Z,15.30
2018-05-21T03:43:25.200Z,15.40
2018-05-21T03:44:25.177Z,15.41
2018-05-21T03:45:25.161Z,15.38
2018-05-21T03:46:25.203Z,15.38
2018-05-21T03:47:25.133Z,15.43
2018-05-21T03:48:25.119Z,15.38
2018-05-21T03:49:25.106Z,15.43
2018-05-21T03:50:25.089Z,15.45
2018-05-21T03:51:25.089Z,15.48
2018-05-21T03:52:25.061Z,15.48
2018-05-21T03:53:25.048Z,15.44
2018-05-21T03:54:25.032Z,15.44
2018-05-21T03:55:25.022Z,15.44
2018-05-21T03:56:25.003Z,15.50
2018-05-21T03:57:24.994Z,15.45
2018-05-21T03:58:24.971Z,15.47
2018-05-21T03:59:24.958Z,15.58
2018-05-21T04:00:24.946Z,15.58
2018-05-21T04:01:24.927Z,15.54
2018-05-21T04:02:24.920Z,15.59
2018-05-21T04:03:24.910Z,15.63
2018-05-21T04:04:24.976Z,15.59
2018-05-21T04:05:24.881Z,15.58
2018-05-21T04:06:24.862Z,15.59
2018-05-21T04:07:24.844Z,15.58
2018-05-21T04:08:24.824Z,15.58
2018-05-21T04:09:24.817Z,15.51
2018-05-21T04:10:24.802Z,15.58
2018-05-21T04:11:24.836Z,15.59
2018-05-21T04:12:24.774Z,15.52
2018-05-21T04:13:24.768Z,15.59
2018-05-21T04:14:24.748Z,15.56
2018-05-21T04:15:24.729Z,15.62
2018-05-21T04:16:24.720Z,15.66
2018-05-21T04:17:24.709Z,15.66
2018-05-21T04:18:24.687Z,15.58
2018-05-21T04:19:24.667Z,15.52
2018-05-21T04:20:24.663Z,15.41
2018-05-21T04:21:24.643Z,15.45
2018-05-21T04:22:24.633Z,15.47
2018-05-21T04:23:24.610Z,15.45
2018-05-21T04:24:24.597Z,15.43
2018-05-21T04:25:24.591Z,15.45
2018-05-21T04:26:24.568Z,15.43
2018-05-21T04:27:24.560Z,15.43
2018-05-21T04:28:24.541Z,15.48
2018-05-21T04:29:24.533Z,15.38
2018-05-21T04:30:24.521Z,15.43
2018-05-21T04:31:24.502Z,15.45
2018-05-21T04:32:24.490Z,15.54
2018-05-21T04:33:24.474Z,15.59
2018-05-21T04:34:24.454Z,15.58
2018-05-21T04:35:24.438Z,15.59
2018-05-21T04:36:24.456Z,15.58
2018-05-21T04:37:24.417Z,15.68
2018-05-21T04:38:24.403Z,15.62
2018-05-21T04:39:24.393Z,15.62
2018-05-21T04:40:24.373Z,15.66
2018-05-21T04:41:24.358Z,15.65
2018-05-21T04:42:24.336Z,15.66
2018-05-21T04:43:24.329Z,15.56
2018-05-21T04:44:24.314Z,15.56
2018-05-21T04:45:24.301Z,15.59
2018-05-21T04:46:24.288Z,15.54
2018-05-21T04:47:24.274Z,15.62
2018-05-21T04:48:24.257Z,15.66
2018-05-21T04:49:24.254Z,15.66
2018-05-21T04:50:24.231Z,15.59
2018-05-21T04:51:24.219Z,15.59
2018-05-21T04:52:24.203Z,15.56
2018-05-21T04:53:24.193Z,15.62
2018-05-21T04:54:24.167Z,15.66
2018-05-21T04:55:24.164Z,15.66
2018-05-21T04:56:24.144Z,15.60
2018-05-21T04:57:24.132Z,15.65
2018-05-21T04:58:24.116Z,15.62
2018-05-21T04:59:24.100Z,15.65
2018-05-21T05:00:24.089Z,15.77
2018-05-21T05:01:24.074Z,15.80
2018-05-21T05:02:24.065Z,15.77
2018-05-21T05:03:24.041Z,15.76
2018-05-21T05:04:24.034Z,15.84
2018-05-21T05:05:24.067Z,15.78
2018-05-21T05:06:24.000Z,15.81
2018-05-21T05:07:24.025Z,15.87
2018-05-21T05:08:23.973Z,15.93
2018-05-21T05:09:23.993Z,15.83
2018-05-21T05:10:23.938Z,15.88
2018-05-21T05:11:24.035Z,15.91
2018-05-21T05:12:23.916Z,15.88
2018-05-21T05:13:23.956Z,15.84
2018-05-21T05:14:23.896Z,15.91
2018-05-21T05:15:23.941Z,15.90
2018-05-21T05:16:23.865Z,16.05
2018-05-21T05:17:23.863Z,16.02
2018-05-21T05:18:23.829Z,16.10
2018-05-21T05:19:23.818Z,16.08
2018-05-21T05:20:23.798Z,16.18
2018-05-21T05:21:23.841Z,16.18
2018-05-21T05:22:23.781Z,16.22
2018-05-21T05:23:23.764Z,16.09
2018-05-21T05:24:23.751Z,16.09
2018-05-21T05:25:23.783Z,16.03
2018-05-21T05:26:23.721Z,16.21
2018-05-21T05:27:23.706Z,16.21
2018-05-21T05:28:23.698Z,16.34
2018-05-21T05:29:23.683Z,16.44
2018-05-21T05:30:23.664Z,16.49
2018-05-21T05:31:23.645Z,16.43
2018-05-21T05:32:23.636Z,16.54
2018-05-21T05:33:23.623Z,16.42
2018-05-21T05:34:23.609Z,16.42
2018-05-21T05:35:23.593Z,16.54
2018-05-21T05:36:23.578Z,16.55
2018-05-21T05:37:23.575Z,16.54
2018-05-21T05:38:23.552Z,16.57
2018-05-21T05:39:23.539Z,16.57
2018-05-21T05:40:23.523Z,16.65
2018-05-21T05:41:23.510Z,16.76
2018-05-21T05:42:23.494Z,16.79
2018-05-21T05:43:23.483Z,16.73
2018-05-21T05:44:23.467Z,16.64
2018-05-21T05:45:23.461Z,16.73
2018-05-21T05:46:23.448Z,16.74
2018-05-21T05:47:23.426Z,16.91
2018-05-21T05:48:23.423Z,16.91
2018-05-21T05:49:23.403Z,16.88
2018-05-21T05:50:23.393Z,16.95
2018-05-21T05:51:23.384Z,16.94
2018-05-21T05:52:23.362Z,16.97
2018-05-21T05:53:23.351Z,16.97
2018-05-21T05:54:23.342Z,16.97
2018-05-21T05:55:23.326Z,16.95
2018-05-21T05:56:23.307Z,17.07
2018-05-21T05:57:23.298Z,17.09
2018-05-21T05:58:23.287Z,17.07
2018-05-21T05:59:23.274Z,17.16
2018-05-21T06:00:23.256Z,17.20
2018-05-21T06:01:23.251Z,17.28
2018-05-21T06:02:23.227Z,17.17
2018-05-21T06:03:23.216Z,17.30
2018-05-21T06:04:23.195Z,17.30
2018-05-21T06:05:23.189Z,17.25
2018-05-21T06:06:23.173Z,17.27
2018-05-21T06:07:23.173Z,17.30
2018-05-21T06:08:23.144Z,17.37
2018-05-21T06:09:23.134Z,17.41
2018-05-21T06:10:23.121Z,17.52
2018-05-21T06:11:23.112Z,17.57
2018-05-21T06:12:23.103Z,17.63
2018-05-21T06:13:23.087Z,17.53
2018-05-21T06:14:23.067Z,17.62
2018-05-21T06:15:23.058Z,17.53
2018-05-21T06:16:23.041Z,17.66
2018-05-21T06:17:23.032Z,17.59
2018-05-21T06:18:23.013Z,17.71
2018-05-21T06:19:23.008Z,17.79
2018-05-21T06:20:23.005Z,17.76
2018-05-21T06:21:22.980Z,17.87
2018-05-21T06:22:22.962Z,17.86
2018-05-21T06:23:22.945Z,17.93
2018-05-21T06:24:22.939Z,18.01
2018-05-21T06:25:22.919Z,18.02
2018-05-21T06:26:22.916Z,18.15
2018-05-21T06:27:22.905Z,18.15
2018-05-21T06:28:22.890Z,18.15
2018-05-21T06:29:22.873Z,18.20
2018-05-21T06:30:22.867Z,18.12
2018-05-21T06:31:22.851Z,18.27
2018-05-21T06:32:22.836Z,18.21
2018-05-21T06:33:22.816Z,18.23
2018-05-21T06:34:22.942Z,18.21
2018-05-21T06:35:22.793Z,18.26
2018-05-21T06:36:22.792Z,18.33
2018-05-21T06:37:22.771Z,18.27
2018-05-21T06:38:22.752Z,18.31
2018-05-21T06:39:22.740Z,18.43
2018-05-21T06:40:22.737Z,18.51
2018-05-21T06:41:22.713Z,18.36
2018-05-21T06:42:22.702Z,18.46
2018-05-21T06:43:22.694Z,18.45
2018-05-21T06:44:22.678Z,18.34
2018-05-21T06:45:22.667Z,18.42
2018-05-21T06:46:22.663Z,18.51
2018-05-21T06:47:22.643Z,18.41
2018-05-21T06:48:22.630Z,18.51
2018-05-21T06:49:22.617Z,18.63
2018-05-21T06:50:22.604Z,18.70
2018-05-21T06:51:22.646Z,18.71
2018-05-21T06:52:22.588Z,18.76
2018-05-21T06:53:22.572Z,18.67
2018-05-21T06:54:22.560Z,18.82
2018-05-21T06:55:22.540Z,18.94
2018-05-21T06:56:22.527Z,18.96
2018-05-21T06:57:22.516Z,19.08
2018-05-21T06:58:22.505Z,19.15
2018-05-21T06:59:22.503Z,19.15
2018-05-21T07:00:22.480Z,19.17
2018-05-21T07:01:22.467Z,19.30
2018-05-21T07:02:22.458Z,19.38
2018-05-21T07:03:22.447Z,19.41
2018-05-21T07:04:22.430Z,19.42
2018-05-21T07:05:22.421Z,19.37
2018-05-21T07:06:22.409Z,19.35
2018-05-21T07:07:22.396Z,19.47
2018-05-21T07:08:22.378Z,19.52
2018-05-21T07:09:22.377Z,19.53
2018-05-21T07:10:22.363Z,19.53
2018-05-21T07:11:22.348Z,19.52
2018-05-21T07:12:22.342Z,19.50
2018-05-21T07:13:22.326Z,19.47
2018-05-21T07:14:22.310Z,19.39
2018-05-21T07:15:22.301Z,19.47
2018-05-21T07:16:22.295Z,19.45
2018-05-21T07:17:22.281Z,19.53
2018-05-21T07:18:22.268Z,19.70
2018-05-21T07:19:22.246Z,19.77
2018-05-21T07:20:22.243Z,19.82
2018-05-21T07:21:22.231Z,19.74
2018-05-21T07:22:22.218Z,19.87
2018-05-21T07:23:22.207Z,19.78
2018-05-21T07:24:22.281Z,19.81
2018-05-21T07:25:22.234Z,19.81
2018-05-21T07:26:22.167Z,19.96
2018-05-21T07:27:22.164Z,19.97
2018-05-21T07:28:22.149Z,19.99
2018-05-21T07:29:22.139Z,20.15
2018-05-21T07:30:22.125Z,20.23
2018-05-21T07:31:22.169Z,20.14
2018-05-21T07:32:22.095Z,20.18
2018-05-21T07:33:22.097Z,20.14
2018-05-21T07:34:22.081Z,20.27
2018-05-21T07:35:22.065Z,20.30
2018-05-21T07:36:22.058Z,20.49
2018-05-21T07:37:22.192Z,20.60
2018-05-21T07:38:22.026Z,20.61
2018-05-21T07:39:22.022Z,20.58
2018-05-21T07:40:22.011Z,20.73
2018-05-21T07:41:21.998Z,20.77
2018-05-21T07:42:21.984Z,20.95
2018-05-21T07:43:21.982Z,21.01
2018-05-21T07:44:21.971Z,21.07
2018-05-21T07:45:21.954Z,21.04
2018-05-21T07:46:21.941Z,21.04
2018-05-21T07:47:21.934Z,21.04
2018-05-21T07:48:21.922Z,21.18
2018-05-21T07:49:21.908Z,21.13
2018-05-21T07:50:21.895Z,21.23
2018-05-21T07:51:21.981Z,21.38
2018-05-21T07:52:21.876Z,21.40
2018-05-21T07:53:21.871Z,21.40
2018-05-21T07:54:21.861Z,21.48
2018-05-21T07:55:21.848Z,21.48
2018-05-21T07:56:21.829Z,21.55
2018-05-21T07:57:21.816Z,21.69
2018-05-21T07:58:21.857Z,21.78
2018-05-21T07:59:21.794Z,21.78
2018-05-21T08:00:21.790Z,21.91
2018-05-21T08:01:21.775Z,21.84
2018-05-21T08:02:21.768Z,21.85
2018-05-21T08:03:21.762Z,21.96
2018-05-21T08:04:21.746Z,22.03
2018-05-21T08:05:21.750Z,22.04
2018-05-21T08:06:21.727Z,22.04
2018-05-21T08:07:21.717Z,22.16
2018-05-21T08:08:21.707Z,22.25
2018-05-21T08:09:21.692Z,22.07
2018-05-21T08:10:21.685Z,22.16
2018-05-21T08:11:21.675Z,22.21
2018-05-21T08:12:21.675Z,22.46
2018-05-21T08:13:21.662Z,22.61
2018-05-21T08:14:21.658Z,22.64
2018-05-21T08:15:21.633Z,22.56
2018-05-21T08:16:21.627Z,22.74
2018-05-21T08:17:21.617Z,22.86
2018-05-21T08:18:21.610Z,23.06
2018-05-21T08:19:21.601Z,22.76
2018-05-21T08:20:21.591Z,22.85
2018-05-21T08:21:21.582Z,22.96
2018-05-21T08:22:21.581Z,23.10
2018-05-21T08:23:21.572Z,23.17
2018-05-21T08:24:21.556Z,23.21
2018-05-21T08:25:21.547Z,23.39
2018-05-21T08:26:21.547Z,23.70
2018-05-21T08:27:21.537Z,23.73
2018-05-21T08:28:21.533Z,23.94
2018-05-21T08:29:21.525Z,24.06
2018-05-21T08:30:21.522Z,24.00
2018-05-21T08:31:21.521Z,24.11
2018-05-21T08:32:21.512Z,24.10
2018-05-21T08:33:21.510Z,24.34
2018-05-21T08:34:21.502Z,24.34
2018-05-21T08:35:21.495Z,24.33
2018-05-21T08:36:21.492Z,24.22
2018-05-21T08:37:21.496Z,24.23
2018-05-21T08:38:21.498Z,24.29
2018-05-21T08:39:21.488Z,24.16
2018-05-21T08:40:21.479Z,24.07
2018-05-21T08:41:21.477Z,24.21
2018-05-21T08:42:21.474Z,24.15
2018-05-21T08:43:21.481Z,24.43
2018-05-21T08:44:21.471Z,24.76
2018-05-21T08:45:21.471Z,24.66
2018-05-21T08:46:21.470Z,24.89
2018-05-21T08:47:21.469Z,24.97
2018-05-21T08:48:21.470Z,25.30
2018-05-21T08:49:21.464Z,25.64
2018-05-21T08:50:21.460Z,25.86
2018-05-21T08:51:21.458Z,25.93
2018-05-21T08:52:21.553Z,25.83
2018-05-21T08:53:21.463Z,25.67
2018-05-21T08:54:21.464Z,26.05
2018-05-21T08:55:21.461Z,26.38
2018-05-21T08:56:21.461Z,26.76
2018-05-21T08:57:21.461Z,26.83
2018-05-21T08:58:21.470Z,27.17
2018-05-21T08:59:21.461Z,27.63
2018-05-21T09:00:21.550Z,28.10
2018-05-21T09:01:21.458Z,28.50
2018-05-21T09:02:21.458Z,27.78
2018-05-21T09:03:21.461Z,27.47
2018-05-21T09:04:21.461Z,26.88
2018-05-21T09:05:21.510Z,26.45
2018-05-21T09:06:21.465Z,26.98
2018-05-21T09:07:21.471Z,26.34
2018-05-21T09:08:21.471Z,26.24
2018-05-21T09:09:21.464Z,26.93
2018-05-21T09:10:21.470Z,27.30
2018-05-21T09:11:21.464Z,27.41
2018-05-21T09:12:21.477Z,27.37
2018-05-21T09:13:21.468Z,27.57
2018-05-21T09:14:21.467Z,28.24
2018-05-21T09:15:21.464Z,28.22
2018-05-21T09:16:21.528Z,28.42
2018-05-21T09:17:21.464Z,27.75
2018-05-21T09:18:21.470Z,27.80
2018-05-21T09:19:21.467Z,28.10
2018-05-21T09:20:21.471Z,28.56
2018-05-21T09:21:21.465Z,28.35
2018-05-21T09:22:21.469Z,27.88
2018-05-21T09:23:21.465Z,28.25
2018-05-21T09:24:21.524Z,28.27
2018-05-21T09:25:21.459Z,28.50
2018-05-21T09:26:21.556Z,28.20
2018-05-21T09:27:21.458Z,28.49
2018-05-21T09:28:21.512Z,27.98
2018-05-21T09:29:21.462Z,27.90
2018-05-21T09:30:21.518Z,28.07
2018-05-21T09:31:21.453Z,28.15
2018-05-21T09:32:21.510Z,28.05
2018-05-21T09:33:21.461Z,28.00
2018-05-21T09:34:21.448Z,28.17
2018-05-21T09:35:21.446Z,28.53
2018-05-21T09:36:21.502Z,28.09
2018-05-21T09:37:21.446Z,28.17
2018-05-21T09:38:21.452Z,28.83
2018-05-21T09:39:21.433Z,28.93
2018-05-21T09:40:21.432Z,29.03
2018-05-21T09:41:21.436Z,28.83
2018-05-21T09:42:21.440Z,28.56
2018-05-21T09:43:21.427Z,27.95
2018-05-21T09:44:21.430Z,28.12
2018-05-21T09:45:21.428Z,28.49
2018-05-21T09:46:21.420Z,28.24
2018-05-21T09:47:21.416Z,28.79
2018-05-21T09:48:21.417Z,28.37
2018-05-21T09:49:21.416Z,28.50
2018-05-21T09:50:21.410Z,29.09
2018-05-21T09:51:21.407Z,29.13
2018-05-21T09:52:21.401Z,29.36
2018-05-21T09:53:21.446Z,28.64
2018-05-21T09:54:21.396Z,27.78
2018-05-21T09:55:21.391Z,28.09
2018-05-21T09:56:21.384Z,28.28
2018-05-21T09:57:21.401Z,28.10
2018-05-21T09:58:21.373Z,28.68
2018-05-21T09:59:21.376Z,27.83
2018-05-21T10:00:21.366Z,27.93
2018-05-21T10:01:21.417Z,27.82
2018-05-21T10:02:21.356Z,27.82
2018-05-21T10:03:21.350Z,28.10
2018-05-21T10:04:21.350Z,27.94
2018-05-21T10:05:21.348Z,27.83
2018-05-21T10:06:21.340Z,28.16
2018-05-21T10:07:21.340Z,27.83
2018-05-21T10:08:21.327Z,28.12
2018-05-21T10:09:21.331Z,28.32
2018-05-21T10:10:21.321Z,28.25
2018-05-21T10:11:21.314Z,27.61
2018-05-21T10:12:21.311Z,27.64
2018-05-21T10:13:21.308Z,27.82
2018-05-21T10:14:21.298Z,27.95
2018-05-21T10:15:21.298Z,28.19
2018-05-21T10:16:21.285Z,28.83
2018-05-21T10:17:21.281Z,28.75
2018-05-21T10:18:21.275Z,29.61
2018-05-21T10:19:21.274Z,29.73
2018-05-21T10:20:21.270Z,29.93
2018-05-21T10:21:21.260Z,29.74
2018-05-21T10:22:21.254Z,30.11
2018-05-21T10:23:21.250Z,29.49
2018-05-21T10:24:21.251Z,29.27
2018-05-21T10:25:21.240Z,28.91
2018-05-21T10:26:21.290Z,29.54
2018-05-21T10:27:21.222Z,29.41
2018-05-21T10:28:21.269Z,29.36
2018-05-21T10:29:21.216Z,28.79
2018-05-21T10:30:21.279Z,28.65
2018-05-21T10:31:21.202Z,28.09
2018-05-21T10:32:21.344Z,27.75
2018-05-21T10:33:21.189Z,28.19
2018-05-21T10:34:21.178Z,28.56
2018-05-21T10:35:21.174Z,28.53
2018-05-21T10:36:21.170Z,28.54
2018-05-21T10:37:21.260Z,28.20
2018-05-21T10:38:21.161Z,27.97
2018-05-21T10:39:21.151Z,28.03
2018-05-21T10:40:21.148Z,27.82
2018-05-21T10:41:21.138Z,27.88
2018-05-21T10:42:21.141Z,27.98
2018-05-21T10:43:21.128Z,27.70
2018-05-21T10:44:21.122Z,27.50
2018-05-21T10:45:21.113Z,27.58
2018-05-21T10:46:21.107Z,27.47
2018-05-21T10:47:21.104Z,27.37
2018-05-21T10:48:21.092Z,27.58
2018-05-21T10:49:21.095Z,27.66
2018-05-21T10:50:21.086Z,27.32
2018-05-21T10:51:21.109Z,27.41
2018-05-21T10:52:21.070Z,27.45
2018-05-21T10:53:21.067Z,27.15
2018-05-21T10:54:21.061Z,27.47
2018-05-21T10:55:21.052Z,27.49
2018-05-21T10:56:21.142Z,26.88
2018-05-21T10:57:21.041Z,26.53
2018-05-21T10:58:21.038Z,26.53
2018-05-21T10:59:21.025Z,26.70
2018-05-21T11:00:21.016Z,26.67
2018-05-21T11:01:21.016Z,27.17
2018-05-21T11:02:21.003Z,27.52
2018-05-21T11:03:21.009Z,27.25
2018-05-21T11:04:20.997Z,27.42
2018-05-21T11:05:20.990Z,27.72
2018-05-21T11:06:20.981Z,27.72
2018-05-21T11:07:20.974Z,27.41
2018-05-21T11:08:20.968Z,27.63
2018-05-21T11:09:20.965Z,28.00
2018-05-21T11:10:20.956Z,27.95
2018-05-21T11:11:20.945Z,27.94
2018-05-21T11:12:20.946Z,27.97
2018-05-21T11:13:20.946Z,28.06
2018-05-21T11:14:20.934Z,27.90
2018-05-21T11:15:20.922Z,27.90
2018-05-21T11:16:20.920Z,27.45
2018-05-21T11:17:20.910Z,27.63
2018-05-21T11:18:20.896Z,27.85
2018-05-21T11:19:20.901Z,27.49
2018-05-21T11:20:20.890Z,27.37
2018-05-21T11:21:20.887Z,27.49
2018-05-21T11:22:20.880Z,27.40
2018-05-21T11:23:20.876Z,27.61
2018-05-21T11:24:20.867Z,27.85
2018-05-21T11:25:20.862Z,27.95
2018-05-21T11:26:20.851Z,28.12
2018-05-21T11:27:20.862Z,27.95
2018-05-21T11:28:20.846Z,27.68
2018-05-21T11:29:20.840Z,27.40
2018-05-21T11:30:20.830Z,27.37
2018-05-21T11:31:20.824Z,27.42
2018-05-21T11:32:20.814Z,27.38
2018-05-21T11:33:20.811Z,27.58
2018-05-21T11:34:20.804Z,27.34
2018-05-21T11:35:20.800Z,26.94
2018-05-21T11:36:20.787Z,27.19
2018-05-21T11:37:20.785Z,27.17
2018-05-21T11:38:20.772Z,27.47
2018-05-21T11:39:20.766Z,27.76
2018-05-21T11:40:20.769Z,27.68
2018-05-21T11:41:20.759Z,27.87
2018-05-21T11:42:20.759Z,27.94
2018-05-21T11:43:20.740Z,27.63
2018-05-21T11:44:20.740Z,27.93
2018-05-21T11:45:20.727Z,28.01
2018-05-21T11:46:20.849Z,27.98
2018-05-21T11:47:20.720Z,28.24
2018-05-21T11:48:20.718Z,28.54
2018-05-21T11:49:20.715Z,28.24
2018-05-21T11:50:20.705Z,28.07
2018-05-21T11:51:20.701Z,27.95
2018-05-21T11:52:20.692Z,27.38
2018-05-21T11:53:20.690Z,27.58
2018-05-21T11:54:20.675Z,27.32
2018-05-21T11:55:20.666Z,27.44
2018-05-21T11:56:20.667Z,27.60
2018-05-21T11:57:20.660Z,27.37
2018-05-21T11:58:20.647Z,27.19
2018-05-21T11:59:20.659Z,27.25
2018-05-21T12:00:20.637Z,27.15
2018-05-21T12:01:20.632Z,26.90
2018-05-21T12:02:20.628Z,26.98
2018-05-21T12:03:20.625Z,27.15
2018-05-21T12:04:20.619Z,27.40
2018-05-21T12:05:20.612Z,27.42
2018-05-21T12:06:20.603Z,27.53
2018-05-21T12:07:20.601Z,27.31
2018-05-21T12:08:20.592Z,27.03
2018-05-21T12:09:20.582Z,27.12
2018-05-21T12:10:20.580Z,27.25
2018-05-21T12:11:20.580Z,27.35
2018-05-21T12:12:20.567Z,27.34
2018-05-21T12:13:20.558Z,27.38
2018-05-21T12:14:20.552Z,27.27
2018-05-21T12:15:20.545Z,27.38
2018-05-21T12:16:20.541Z,27.68
2018-05-21T12:17:20.532Z,27.93
2018-05-21T12:18:20.531Z,28.13
2018-05-21T12:19:20.522Z,28.20
2018-05-21T12:20:20.512Z,28.34
2018-05-21T12:21:20.506Z,27.94
2018-05-21T12:22:20.568Z,28.09
2018-05-21T12:23:20.500Z,27.87
2018-05-21T12:24:20.483Z,27.58
2018-05-21T12:25:20.528Z,27.61
2018-05-21T12:26:20.476Z,27.58
2018-05-21T12:27:20.567Z,27.44
2018-05-21T12:28:20.461Z,27.41
2018-05-21T12:29:20.458Z,27.17
2018-05-21T12:30:20.451Z,27.16
2018-05-21T12:31:20.451Z,26.80
2018-05-21T12:32:20.441Z,26.80
2018-05-21T12:33:20.436Z,26.82
2018-05-21T12:34:20.428Z,27.05
2018-05-21T12:35:20.414Z,27.40
2018-05-21T12:36:20.408Z,27.01
2018-05-21T12:37:20.408Z,27.41
2018-05-21T12:38:20.397Z,27.41
2018-05-21T12:39:20.388Z,27.58
2018-05-21T12:40:20.392Z,28.00
2018-05-21T12:41:20.377Z,28.28
2018-05-21T12:42:20.395Z,28.65
2018-05-21T12:43:20.367Z,28.79
2018-05-21T12:44:20.371Z,28.13
2018-05-21T12:45:20.362Z,27.83
2018-05-21T12:46:20.364Z,27.38
2018-05-21T12:47:20.352Z,27.19
2018-05-21T12:48:20.338Z,27.41
2018-05-21T12:49:20.330Z,27.26
2018-05-21T12:50:20.333Z,27.60
2018-05-21T12:51:20.313Z,27.72
2018-05-21T12:52:20.317Z,27.82